Time;durP1;ratioP1;P1;durP2;ratioP2;P2;SDS_P1;SDS_P2;PMS_P1;PMS_P2;Temp;Humidity;BMP_temperature;BMP_pressure;BME280_temperature;BME280_humidity;BME280_pressure;Samples;Min_cycle;Max_cycle;Signal;HPM_P1;HPM_P2
2024/02/29 00:00:15;;;;;;;45.57;24.77;;;2.70;99.90;;;;;;5040344;28;20264;-86
2024/02/29 00:02:41;;;;;;;45.47;25.13;;;2.60;99.90;;;;;;5066033;28;20214;-85
2024/02/29 00:05:11;;;;;;;46.97;24.57;;;2.60;99.90;;;;;;5057769;28;20665;-85
2024/02/29 00:07:38;;;;;;;45.50;24.60;;;2.50;99.90;;;;;;5039803;28;20189;-85
2024/02/29 00:10:04;;;;;;;40.00;22.80;;;2.60;99.90;;;;;;5054669;28;20567;-85
2024/02/29 00:12:30;;;;;;;42.67;22.63;;;2.50;99.90;;;;;;5057781;28;20208;-83
2024/02/29 00:14:57;;;;;;;44.03;24.40;;;2.60;99.90;;;;;;5057338;28;20229;-84
2024/02/29 00:17:23;;;;;;;46.80;25.07;;;2.50;99.90;;;;;;5047907;28;20251;-88
2024/02/29 00:19:48;;;;;;;47.83;24.87;;;2.50;99.90;;;;;;5057293;28;20628;-87
2024/02/29 00:22:14;;;;;;;45.57;25.47;;;2.50;99.90;;;;;;5039450;28;20217;-88
2024/02/29 00:24:47;;;;;;;49.13;26.77;;;2.50;99.90;;;;;;5039858;28;20190;-88
2024/02/29 00:27:13;;;;;;;43.60;24.73;;;2.50;99.90;;;;;;5057567;28;20173;-88
2024/02/29 00:29:39;;;;;;;45.13;25.33;;;2.60;99.90;;;;;;5047636;28;20188;-89
2024/02/29 00:32:05;;;;;;;48.80;26.03;;;2.60;99.90;;;;;;5046080;28;20177;-84
2024/02/29 00:34:31;;;;;;;50.97;26.27;;;2.60;99.90;;;;;;5041199;28;20192;-84
2024/02/29 00:36:58;;;;;;;42.00;23.87;;;2.50;99.90;;;;;;5047605;28;20265;-84
2024/02/29 00:39:23;;;;;;;44.13;25.43;;;2.50;99.90;;;;;;5048712;28;20239;-83
2024/02/29 00:41:49;;;;;;;44.57;25.13;;;2.50;99.90;;;;;;5046687;28;20182;-84
2024/02/29 00:44:15;;;;;;;42.40;24.53;;;2.50;99.90;;;;;;5039049;28;20518;-84
2024/02/29 00:46:42;;;;;;;49.27;26.03;;;2.50;99.90;;;;;;5056865;28;20241;-83
2024/02/29 00:49:08;;;;;;;46.00;25.43;;;2.60;99.90;;;;;;5039116;28;20185;-83
2024/02/29 00:51:33;;;;;;;43.83;24.10;;;2.60;99.90;;;;;;5039171;28;20240;-84
2024/02/29 00:53:59;;;;;;;40.27;24.53;;;2.50;99.90;;;;;;5039257;28;20181;-87
2024/02/29 00:56:26;;;;;;;34.60;21.03;;;2.40;99.90;;;;;;5048277;28;20327;-87
2024/02/29 00:58:52;;;;;;;41.57;23.23;;;2.30;99.90;;;;;;5058461;28;20178;-85
2024/02/29 01:01:21;;;;;;;43.67;24.67;;;2.20;99.90;;;;;;5050427;28;20193;-88
2024/02/29 01:03:46;;;;;;;42.00;23.10;;;2.10;99.90;;;;;;5046975;28;20571;-85
2024/02/29 01:06:15;;;;;;;42.80;24.63;;;2.20;99.90;;;;;;5047021;28;20186;-85
2024/02/29 01:08:42;;;;;;;42.93;25.07;;;2.30;99.90;;;;;;5046865;28;20212;-88
2024/02/29 01:11:07;;;;;;;44.80;24.93;;;2.20;99.90;;;;;;5038799;28;20775;-84
2024/02/29 01:13:33;;;;;;;45.60;25.77;;;2.20;99.90;;;;;;5056090;28;20244;-83
2024/02/29 01:16:03;;;;;;;44.57;26.07;;;2.10;99.90;;;;;;5038564;28;20193;-84
2024/02/29 01:18:29;;;;;;;43.27;24.13;;;2.10;99.90;;;;;;5038551;28;20170;-84
2024/02/29 01:20:54;;;;;;;40.30;22.80;;;2.10;99.90;;;;;;5043941;28;20503;-84
2024/02/29 01:23:20;;;;;;;44.90;23.83;;;2.00;99.90;;;;;;5038778;28;20239;-84
2024/02/29 01:25:46;;;;;;;39.93;23.03;;;2.00;99.90;;;;;;5054325;28;20235;-85
2024/02/29 01:28:12;;;;;;;42.63;23.63;;;2.00;99.90;;;;;;5053785;28;20271;-84
2024/02/29 01:30:37;;;;;;;38.00;22.30;;;2.00;99.90;;;;;;5064878;28;20214;-84
2024/02/29 01:33:03;;;;;;;43.60;23.13;;;2.00;99.90;;;;;;5056348;28;20213;-84
2024/02/29 01:35:30;;;;;;;38.67;22.43;;;2.00;99.90;;;;;;5046367;28;20189;-85
2024/02/29 01:37:56;;;;;;;37.67;22.43;;;2.00;99.90;;;;;;5037760;28;20189;-83
2024/02/29 01:40:22;;;;;;;40.77;22.27;;;2.10;99.90;;;;;;5038031;28;20522;-84
2024/02/29 01:42:48;;;;;;;37.73;22.93;;;2.00;99.90;;;;;;5037194;28;20293;-86
2024/02/29 01:45:14;;;;;;;41.03;21.70;;;2.00;99.90;;;;;;5041746;28;20185;-87
2024/02/29 01:47:43;;;;;;;36.77;21.13;;;2.00;99.90;;;;;;5037326;28;20200;-87
2024/02/29 01:50:12;;;;;;;42.07;21.57;;;2.00;99.90;;;;;;5063650;28;20185;-88
2024/02/29 01:52:42;;;;;;;38.87;22.33;;;1.90;99.90;;;;;;5066445;28;20216;-86
2024/02/29 01:55:10;;;;;;;38.10;21.77;;;2.00;99.90;;;;;;5042397;28;20182;-83
2024/02/29 01:57:41;;;;;;;39.63;22.07;;;2.00;99.90;;;;;;5037456;28;20188;-83
2024/02/29 02:00:08;;;;;;;38.83;21.03;;;2.00;99.90;;;;;;5037618;28;20250;-83
2024/02/29 02:02:34;;;;;;;36.30;21.60;;;1.90;99.90;;;;;;5036949;28;20225;-83
2024/02/29 02:05:00;;;;;;;37.07;22.33;;;2.00;99.90;;;;;;5063373;28;20178;-83
2024/02/29 02:07:28;;;;;;;35.87;20.97;;;2.00;99.90;;;;;;5056262;28;20182;-82
2024/02/29 02:09:55;;;;;;;38.20;20.67;;;2.00;99.90;;;;;;5056579;28;20234;-83
2024/02/29 02:12:21;;;;;;;34.60;19.73;;;2.00;99.90;;;;;;5056517;28;20181;-83
2024/02/29 02:14:46;;;;;;;38.77;20.27;;;2.00;99.90;;;;;;5057755;28;20230;-83
2024/02/29 02:17:13;;;;;;;34.27;19.70;;;2.00;99.90;;;;;;5037176;28;20601;-83
2024/02/29 02:19:39;;;;;;;39.67;19.97;;;2.00;99.90;;;;;;5048135;28;20569;-84
2024/02/29 02:22:05;;;;;;;38.20;20.80;;;2.00;99.90;;;;;;5042197;28;20210;-82
2024/02/29 02:24:35;;;;;;;33.90;19.77;;;2.00;99.90;;;;;;5062966;28;20526;-83
2024/02/29 02:27:00;;;;;;;36.47;21.13;;;1.90;99.90;;;;;;5069236;28;20181;-85
2024/02/29 02:29:26;;;;;;;37.83;20.97;;;1.90;99.90;;;;;;5048201;28;20276;-84
2024/02/29 02:31:56;;;;;;;39.07;21.57;;;1.90;99.90;;;;;;5043594;28;20189;-84
2024/02/29 02:34:22;;;;;;;36.23;20.23;;;1.80;99.90;;;;;;5044947;28;20182;-86
2024/02/29 02:36:57;;;;;;;33.70;19.93;;;1.70;99.90;;;;;;5036962;28;20188;-88
2024/02/29 02:39:22;;;;;;;35.33;20.77;;;1.70;99.90;;;;;;5044714;28;20189;-88
2024/02/29 02:41:48;;;;;;;38.03;21.47;;;1.60;99.90;;;;;;5049315;28;20196;-83
2024/02/29 02:44:14;;;;;;;39.90;20.37;;;1.70;99.90;;;;;;5040420;28;20189;-82
2024/02/29 02:46:40;;;;;;;36.83;20.93;;;1.80;99.90;;;;;;5036586;28;20717;-83
2024/02/29 02:49:05;;;;;;;36.10;21.00;;;1.90;99.90;;;;;;5036320;28;20192;-82
2024/02/29 02:51:31;;;;;;;39.90;20.83;;;1.90;99.90;;;;;;5064400;28;20235;-83
2024/02/29 02:53:57;;;;;;;33.43;19.43;;;1.90;99.90;;;;;;5042706;28;20640;-82
2024/02/29 02:56:25;;;;;;;32.33;18.57;;;1.80;99.90;;;;;;5053597;28;20185;-83
2024/02/29 02:58:51;;;;;;;31.57;17.87;;;1.70;99.90;;;;;;5043284;28;20197;-82
2024/02/29 03:01:17;;;;;;;30.23;17.27;;;1.70;99.90;;;;;;5052980;28;20185;-82
2024/02/29 03:03:42;;;;;;;31.40;17.00;;;1.70;99.90;;;;;;5044642;28;20296;-83
2024/02/29 03:06:09;;;;;;;33.10;17.90;;;1.70;99.90;;;;;;5043439;28;20187;-81
2024/02/29 03:08:34;;;;;;;32.23;17.70;;;1.80;99.90;;;;;;5045352;28;20186;-81
2024/02/29 03:11:00;;;;;;;34.03;17.63;;;1.80;99.90;;;;;;5054210;28;20178;-82
2024/02/29 03:13:26;;;;;;;32.73;17.60;;;1.70;99.90;;;;;;5039795;28;20229;-82
2024/02/29 03:15:52;;;;;;;31.70;16.40;;;1.70;99.90;;;;;;5044537;28;20189;-84
2024/02/29 03:18:17;;;;;;;26.77;16.10;;;1.70;99.90;;;;;;5036050;28;20189;-83
2024/02/29 03:20:43;;;;;;;28.63;16.07;;;1.60;99.90;;;;;;5048053;28;20220;-84
2024/02/29 03:23:09;;;;;;;29.63;16.30;;;1.60;99.90;;;;;;5073849;28;20582;-82
2024/02/29 03:25:35;;;;;;;26.60;16.50;;;1.50;99.90;;;;;;5037147;28;20181;-83
2024/02/29 03:28:02;;;;;;;30.37;16.90;;;1.50;99.90;;;;;;5035964;28;20235;-85
2024/02/29 03:30:28;;;;;;;31.90;15.93;;;1.40;99.90;;;;;;5035738;28;20178;-83
2024/02/29 03:32:54;;;;;;;26.97;15.37;;;1.40;99.90;;;;;;5066964;28;20177;-84
2024/02/29 03:35:19;;;;;;;26.33;14.97;;;1.40;99.90;;;;;;5047365;28;20181;-84
2024/02/29 03:37:49;;;;;;;25.93;14.97;;;1.40;99.90;;;;;;5044433;28;20186;-83
2024/02/29 03:40:15;;;;;;;26.17;14.47;;;1.40;99.90;;;;;;5036535;28;20647;-84
2024/02/29 03:42:41;;;;;;;26.57;14.47;;;1.40;99.90;;;;;;5039171;28;20208;-85
2024/02/29 03:45:07;;;;;;;24.33;14.13;;;1.40;99.90;;;;;;5036537;28;20193;-85
2024/02/29 03:47:33;;;;;;;25.17;14.03;;;1.40;99.90;;;;;;5054733;28;20676;-86
2024/02/29 03:50:02;;;;;;;24.40;14.50;;;1.50;99.90;;;;;;5050235;28;20182;-85
2024/02/29 03:52:28;;;;;;;27.33;14.57;;;1.40;99.90;;;;;;5052640;28;20234;-85
2024/02/29 03:54:54;;;;;;;28.33;14.47;;;1.40;99.90;;;;;;5049583;28;20184;-84
2024/02/29 03:57:22;;;;;;;23.67;13.63;;;1.40;99.90;;;;;;5039135;28;20209;-88
2024/02/29 03:59:48;;;;;;;23.80;13.57;;;1.40;99.90;;;;;;5053685;28;20182;-88
2024/02/29 04:02:14;;;;;;;25.53;13.83;;;1.40;99.90;;;;;;5036203;28;20547;-85
2024/02/29 04:04:40;;;;;;;26.53;13.77;;;1.40;99.90;;;;;;5039265;28;20197;-83
2024/02/29 04:07:06;;;;;;;25.70;14.63;;;1.50;99.90;;;;;;5041145;28;20182;-83
2024/02/29 04:09:32;;;;;;;24.20;14.00;;;1.40;99.90;;;;;;5036110;28;20182;-83
2024/02/29 04:11:57;;;;;;;25.13;13.80;;;1.40;99.90;;;;;;5057637;28;20182;-84
2024/02/29 04:14:23;;;;;;;22.73;12.93;;;1.50;99.90;;;;;;5039463;28;20247;-83
2024/02/29 04:16:55;;;;;;;23.43;13.13;;;1.50;99.90;;;;;;5048128;28;20182;-85
2024/02/29 04:19:21;;;;;;;22.47;12.00;;;1.50;99.90;;;;;;5047862;28;20612;-86
2024/02/29 04:21:48;;;;;;;22.87;12.87;;;1.50;99.90;;;;;;5039916;28;20193;-84
2024/02/29 04:24:13;;;;;;;20.57;11.97;;;1.50;99.90;;;;;;5039820;28;20647;-86
2024/02/29 04:26:39;;;;;;;20.63;12.63;;;1.50;99.90;;;;;;5042351;28;20189;-85
2024/02/29 04:29:05;;;;;;;19.53;11.57;;;1.50;99.90;;;;;;5044566;28;20196;-86
2024/02/29 04:31:31;;;;;;;21.13;11.20;;;1.50;99.90;;;;;;5049592;28;20190;-87
2024/02/29 04:33:57;;;;;;;21.77;11.00;;;1.50;99.90;;;;;;5051146;28;20177;-88
2024/02/29 04:36:22;;;;;;;18.53;10.63;;;1.50;99.90;;;;;;5041847;28;20182;-85
2024/02/29 04:38:50;;;;;;;21.40;10.87;;;1.50;99.90;;;;;;5039405;28;20185;-89
2024/02/29 04:41:16;;;;;;;17.40;10.87;;;1.50;99.90;;;;;;5056935;28;20275;-90
2024/02/29 04:43:42;;;;;;;16.90;10.00;;;1.50;99.90;;;;;;5042668;28;20255;-87
2024/02/29 04:46:08;;;;;;;19.87;10.17;;;1.50;99.90;;;;;;5039136;28;20174;-85
2024/02/29 04:48:35;;;;;;;16.30;9.70;;;1.60;99.90;;;;;;5047449;28;20186;-84
2024/02/29 04:51:00;;;;;;;17.90;10.03;;;1.70;99.90;;;;;;5039443;28;20255;-86
2024/02/29 04:53:26;;;;;;;18.73;9.87;;;1.80;99.90;;;;;;5039384;28;20210;-87
2024/02/29 04:55:52;;;;;;;18.73;9.37;;;1.80;99.90;;;;;;5044060;28;20611;-86
2024/02/29 04:58:19;;;;;;;15.87;9.60;;;1.80;99.90;;;;;;5050203;28;20184;-84
2024/02/29 05:00:44;;;;;;;15.40;9.83;;;1.80;99.90;;;;;;5055064;28;20181;-88
2024/02/29 05:03:10;;;;;;;15.80;9.30;;;1.70;99.90;;;;;;5056682;28;20220;-85
2024/02/29 05:05:36;;;;;;;17.03;9.43;;;1.70;99.90;;;;;;5058086;28;20181;-88
2024/02/29 05:08:03;;;;;;;14.93;8.87;;;1.80;99.90;;;;;;5050586;28;20184;-89
2024/02/29 05:10:29;;;;;;;18.13;9.83;;;1.80;99.90;;;;;;5049350;28;20186;-87
2024/02/29 05:12:54;;;;;;;16.13;9.67;;;1.80;99.90;;;;;;5056594;28;20184;-87
2024/02/29 05:15:21;;;;;;;15.87;9.70;;;1.80;99.90;;;;;;5038639;28;20527;-88
2024/02/29 05:17:47;;;;;;;16.00;10.00;;;1.80;99.90;;;;;;5056305;28;20541;-88
2024/02/29 05:20:13;;;;;;;16.97;9.83;;;1.80;99.90;;;;;;5038875;28;20181;-89
2024/02/29 05:22:39;;;;;;;16.73;10.30;;;1.70;99.90;;;;;;5037543;28;20214;-90
2024/02/29 05:25:07;;;;;;;16.10;9.73;;;1.70;99.90;;;;;;5056551;28;20711;-85
2024/02/29 05:27:36;;;;;;;15.00;9.83;;;1.70;99.90;;;;;;5058263;28;20170;-84
2024/02/29 05:30:01;;;;;;;14.83;9.70;;;1.70;99.90;;;;;;5050152;28;20288;-84
2024/02/29 05:32:28;;;;;;;15.97;9.77;;;1.60;99.90;;;;;;5041690;28;20265;-84
2024/02/29 05:34:53;;;;;;;16.53;9.70;;;1.60;99.90;;;;;;5053597;28;20178;-84
2024/02/29 05:37:19;;;;;;;18.57;9.83;;;1.60;99.90;;;;;;5038455;28;20251;-82
2024/02/29 05:39:45;;;;;;;20.80;10.97;;;1.60;99.90;;;;;;5038315;28;20228;-83
2024/02/29 05:42:11;;;;;;;21.50;10.77;;;1.60;99.90;;;;;;5038410;28;20228;-89
2024/02/29 05:44:40;;;;;;;20.50;10.77;;;1.60;99.90;;;;;;5038111;28;20212;-88
2024/02/29 05:47:05;;;;;;;17.03;11.03;;;1.50;99.90;;;;;;5044704;28;20184;-87
2024/02/29 05:49:34;;;;;;;19.07;11.50;;;1.40;99.90;;;;;;5049780;28;20524;-89
2024/02/29 05:52:00;;;;;;;19.37;10.57;;;1.40;99.90;;;;;;5052365;28;20182;-90
2024/02/29 05:54:25;;;;;;;20.13;10.87;;;1.20;99.90;;;;;;5038017;28;20182;-88
2024/02/29 05:56:51;;;;;;;16.97;9.97;;;1.20;99.90;;;;;;5042457;28;20177;-85
2024/02/29 05:59:17;;;;;;;19.13;10.47;;;1.20;99.90;;;;;;5040993;28;20280;-86
2024/02/29 06:01:42;;;;;;;19.80;10.47;;;1.20;99.90;;;;;;5029882;28;20232;-85
2024/02/29 06:04:08;;;;;;;18.97;10.33;;;1.30;99.90;;;;;;5037949;28;20205;-89
2024/02/29 06:06:34;;;;;;;19.33;10.83;;;1.30;99.90;;;;;;5046337;28;20184;-85
2024/02/29 06:09:02;;;;;;;18.53;10.70;;;1.40;99.90;;;;;;5037590;28;20810;-86
2024/02/29 06:11:28;;;;;;;18.07;10.60;;;1.50;99.90;;;;;;5039221;28;20185;-85
2024/02/29 06:13:54;;;;;;;17.97;10.07;;;1.50;99.90;;;;;;5047873;28;20230;-84
2024/02/29 06:16:20;;;;;;;16.33;9.63;;;1.40;99.90;;;;;;5045581;28;20185;-86
2024/02/29 06:18:48;;;;;;;21.20;10.47;;;1.40;99.90;;;;;;5045759;28;20186;-88
2024/02/29 06:21:13;;;;;;;17.87;10.43;;;1.40;99.90;;;;;;5045180;28;20185;-88
2024/02/29 06:23:39;;;;;;;19.17;10.20;;;1.40;99.90;;;;;;5040823;28;20525;-85
2024/02/29 06:26:05;;;;;;;17.13;9.93;;;1.40;99.90;;;;;;5050810;28;20200;-85
2024/02/29 06:28:42;;;;;;;15.53;9.87;;;1.40;99.90;;;;;;5045278;28;20643;-84
2024/02/29 06:31:08;;;;;;;19.30;10.23;;;1.40;99.90;;;;;;5046995;28;20493;-85
2024/02/29 06:33:35;;;;;;;18.03;9.73;;;1.40;99.90;;;;;;5055662;28;20527;-85
2024/02/29 06:36:03;;;;;;;17.43;9.13;;;1.40;99.90;;;;;;5051295;28;20182;-85
2024/02/29 06:38:29;;;;;;;14.87;9.30;;;1.40;99.90;;;;;;5046673;28;20684;-85
2024/02/29 06:40:56;;;;;;;18.07;9.60;;;1.50;99.90;;;;;;5038539;28;20186;-88
2024/02/29 06:43:21;;;;;;;20.67;10.30;;;1.50;99.90;;;;;;5055798;28;20201;-86
2024/02/29 06:45:48;;;;;;;14.90;9.07;;;1.60;99.90;;;;;;5066859;28;20212;-83
2024/02/29 06:48:19;;;;;;;19.37;10.03;;;1.60;99.90;;;;;;5066437;28;20181;-85
2024/02/29 06:50:45;;;;;;;18.30;10.57;;;1.70;99.90;;;;;;5037387;28;20208;-84
2024/02/29 06:53:12;;;;;;;14.77;9.17;;;1.80;99.90;;;;;;5044126;28;20608;-83
2024/02/29 06:55:37;;;;;;;17.07;9.90;;;1.80;99.90;;;;;;5045592;28;20635;-84
2024/02/29 06:58:05;;;;;;;14.73;8.93;;;1.90;99.90;;;;;;5037025;28;20177;-83
2024/02/29 07:00:31;;;;;;;16.63;8.93;;;1.90;99.90;;;;;;5036642;28;20192;-83
2024/02/29 07:02:57;;;;;;;16.27;9.43;;;1.90;99.90;;;;;;5054697;28;20201;-82
2024/02/29 07:05:22;;;;;;;15.37;8.10;;;2.00;99.90;;;;;;5045589;28;20188;-82
2024/02/29 07:07:52;;;;;;;18.63;9.07;;;2.00;99.90;;;;;;5052116;28;20193;-82
2024/02/29 07:10:19;;;;;;;17.33;8.77;;;2.10;99.90;;;;;;5036375;28;20185;-83
2024/02/29 07:12:46;;;;;;;15.50;8.60;;;2.10;99.90;;;;;;5036352;28;20201;-82
2024/02/29 07:15:11;;;;;;;14.80;8.60;;;2.20;99.90;;;;;;5044664;28;20182;-83
2024/02/29 07:17:38;;;;;;;15.10;9.03;;;2.20;99.90;;;;;;5038916;28;20184;-82
2024/02/29 07:20:04;;;;;;;15.60;9.07;;;2.20;99.90;;;;;;5059758;28;20659;-84
2024/02/29 07:22:30;;;;;;;13.57;8.97;;;2.30;99.90;;;;;;5036279;28;20221;-82
2024/02/29 07:24:56;;;;;;;14.60;9.03;;;2.30;99.90;;;;;;5036457;28;20189;-84
2024/02/29 07:27:22;;;;;;;19.40;9.10;;;2.40;99.90;;;;;;5036345;28;20189;-84
2024/02/29 07:29:48;;;;;;;12.60;8.40;;;2.40;99.90;;;;;;5036013;28;20174;-84
2024/02/29 07:32:14;;;;;;;14.73;8.77;;;2.50;99.90;;;;;;5036229;28;20184;-84
2024/02/29 07:34:39;;;;;;;15.80;9.40;;;2.50;99.90;;;;;;5039249;28;20192;-82
2024/02/29 07:37:05;;;;;;;18.00;8.93;;;2.60;99.90;;;;;;5041492;28;20186;-83
2024/02/29 07:39:31;;;;;;;16.93;9.20;;;2.70;99.90;;;;;;5070387;28;20685;-82
2024/02/29 07:41:57;;;;;;;14.57;9.17;;;2.80;99.90;;;;;;5044460;28;20236;-83
2024/02/29 07:44:24;;;;;;;15.93;8.90;;;3.00;99.90;;;;;;5036080;28;20181;-83
2024/02/29 07:46:50;;;;;;;15.03;8.70;;;3.10;99.90;;;;;;5044448;28;20189;-84
2024/02/29 07:49:16;;;;;;;12.77;8.53;;;3.30;99.90;;;;;;5051915;28;20185;-83
2024/02/29 07:51:42;;;;;;;13.97;8.50;;;3.40;99.90;;;;;;5040091;28;20512;-83
2024/02/29 07:54:09;;;;;;;14.23;8.10;;;3.60;99.90;;;;;;5048488;28;20196;-83
2024/02/29 07:56:40;;;;;;;13.37;8.10;;;3.70;99.90;;;;;;5042143;28;20189;-84
2024/02/29 07:59:09;;;;;;;12.67;7.50;;;3.90;99.90;;;;;;5044974;28;20181;-83
2024/02/29 08:01:35;;;;;;;14.13;9.10;;;4.00;99.90;;;;;;5048078;28;20507;-84
2024/02/29 08:04:01;;;;;;;12.87;8.27;;;4.10;99.90;;;;;;5039550;28;20216;-84
2024/02/29 08:06:26;;;;;;;13.13;7.67;;;4.20;99.90;;;;;;5056044;28;20213;-83
2024/02/29 08:08:52;;;;;;;18.23;7.90;;;4.30;99.90;;;;;;5058864;28;20184;-86
2024/02/29 08:11:18;;;;;;;17.60;8.40;;;4.40;99.90;;;;;;5047086;28;20574;-84
2024/02/29 08:13:44;;;;;;;12.13;7.90;;;4.50;99.90;;;;;;5064444;28;20256;-84
2024/02/29 08:16:10;;;;;;;12.77;8.53;;;4.60;99.90;;;;;;5046704;28;20182;-84
2024/02/29 08:18:37;;;;;;;12.43;7.47;;;4.70;99.90;;;;;;5057301;28;20269;-84
2024/02/29 08:21:04;;;;;;;11.03;7.40;;;4.80;99.90;;;;;;5058691;28;20181;-85
2024/02/29 08:23:30;;;;;;;15.27;7.87;;;5.00;99.90;;;;;;5066608;28;20209;-84
2024/02/29 08:25:55;;;;;;;13.87;7.87;;;5.10;99.90;;;;;;5049441;28;20173;-84
2024/02/29 08:28:21;;;;;;;12.67;7.50;;;5.20;99.90;;;;;;5058599;28;20267;-83
2024/02/29 08:30:47;;;;;;;12.40;7.67;;;5.40;99.90;;;;;;5076211;28;20177;-84
2024/02/29 08:33:13;;;;;;;12.00;7.13;;;5.40;99.90;;;;;;5058369;28;20272;-84
2024/02/29 08:35:39;;;;;;;12.33;7.30;;;5.50;99.90;;;;;;5050424;28;20191;-84
2024/02/29 08:38:04;;;;;;;10.40;7.47;;;5.60;99.90;;;;;;5058383;28;20216;-85
2024/02/29 08:40:30;;;;;;;11.10;6.80;;;5.70;99.90;;;;;;5057953;28;20671;-84
2024/02/29 08:42:56;;;;;;;13.43;6.93;;;5.80;99.90;;;;;;5055646;28;20231;-85
2024/02/29 08:45:22;;;;;;;11.57;7.27;;;5.90;99.90;;;;;;5054909;28;20181;-84
2024/02/29 08:47:49;;;;;;;11.33;7.23;;;6.00;99.90;;;;;;5057836;28;20224;-84
2024/02/29 08:50:15;;;;;;;10.23;7.00;;;6.10;99.90;;;;;;5057969;28;20181;-84
2024/02/29 08:52:41;;;;;;;11.00;6.73;;;6.20;99.90;;;;;;5049899;28;20642;-85
2024/02/29 08:55:08;;;;;;;10.67;6.93;;;6.30;99.90;;;;;;5051315;28;20217;-83
2024/02/29 08:57:35;;;;;;;11.93;7.00;;;6.40;99.90;;;;;;5063804;28;20543;-83
2024/02/29 09:00:01;;;;;;;13.30;7.50;;;6.40;99.90;;;;;;5043852;28;20189;-83
2024/02/29 09:02:27;;;;;;;12.87;7.83;;;6.50;99.90;;;;;;5049527;28;20212;-85
2024/02/29 09:04:53;;;;;;;11.60;6.90;;;6.50;99.90;;;;;;5057947;28;20188;-85
2024/02/29 09:07:18;;;;;;;13.40;8.03;;;6.50;99.90;;;;;;5048768;28;20185;-84
2024/02/29 09:09:44;;;;;;;15.43;8.30;;;6.60;99.90;;;;;;5057465;28;20189;-85
2024/02/29 09:12:12;;;;;;;12.90;8.00;;;6.70;99.90;;;;;;5042543;28;20256;-85
2024/02/29 09:14:37;;;;;;;14.03;8.57;;;6.90;99.90;;;;;;5039713;28;20566;-85
2024/02/29 09:17:04;;;;;;;13.90;9.33;;;7.00;99.90;;;;;;5052257;28;20643;-85
2024/02/29 09:19:31;;;;;;;13.47;8.83;;;7.20;99.90;;;;;;5057279;28;21036;-85
2024/02/29 09:21:56;;;;;;;13.90;9.07;;;7.20;99.90;;;;;;5049212;28;20193;-85
2024/02/29 09:24:22;;;;;;;14.10;9.60;;;7.30;99.90;;;;;;5054171;28;20213;-83
2024/02/29 09:26:48;;;;;;;15.07;9.00;;;7.40;99.90;;;;;;5057925;28;20177;-85
2024/02/29 09:29:14;;;;;;;17.10;10.83;;;7.50;99.90;;;;;;5057400;28;20347;-84
2024/02/29 09:31:41;;;;;;;14.30;9.67;;;7.60;99.90;;;;;;5045965;28;20264;-85
2024/02/29 09:34:07;;;;;;;16.27;9.73;;;7.70;99.90;;;;;;5044331;28;20184;-86
2024/02/29 09:36:33;;;;;;;16.33;10.60;;;7.70;99.90;;;;;;5054356;28;20186;-84
2024/02/29 09:38:59;;;;;;;18.27;10.40;;;7.90;99.90;;;;;;5043084;28;20624;-85
2024/02/29 09:41:27;;;;;;;15.40;10.37;;;7.90;99.90;;;;;;5075271;28;20184;-84
2024/02/29 09:43:53;;;;;;;15.90;10.20;;;7.90;99.90;;;;;;5047796;28;20210;-85
2024/02/29 09:46:21;;;;;;;17.97;11.27;;;8.00;99.90;;;;;;5062907;28;20181;-83
2024/02/29 09:48:49;;;;;;;19.43;11.67;;;8.10;99.90;;;;;;5048756;28;20177;-84
2024/02/29 09:51:20;;;;;;;15.20;10.67;;;8.10;99.90;;;;;;5040869;28;20178;-84
2024/02/29 09:53:51;;;;;;;16.40;11.57;;;8.20;99.90;;;;;;5035730;28;20177;-85
2024/02/29 09:56:24;;;;;;;21.17;12.40;;;8.30;99.90;;;;;;5034006;28;20177;-84
2024/02/29 09:58:53;;;;;;;19.27;11.30;;;8.30;99.90;;;;;;5040782;28;20200;-84
2024/02/29 10:01:19;;;;;;;19.23;11.60;;;8.40;99.90;;;;;;5062460;28;20640;-85
2024/02/29 10:03:48;;;;;;;18.42;11.98;;;8.60;99.90;;;;;;5045141;28;20220;-85
2024/02/29 10:06:14;;;;;;;18.42;12.00;;;8.60;99.90;;;;;;5036804;28;20182;-86
2024/02/29 10:08:40;;;;;;;18.13;12.33;;;8.70;99.90;;;;;;5065274;28;20221;-85
2024/02/29 10:11:07;;;;;;;17.75;12.60;;;8.80;99.90;;;;;;5050087;28;20193;-87
2024/02/29 10:13:40;;;;;;;19.10;12.38;;;8.80;99.90;;;;;;5042108;28;20257;-83
2024/02/29 10:16:13;;;;;;;19.98;12.77;;;8.90;99.90;;;;;;5056306;28;20249;-85
2024/02/29 10:18:39;;;;;;;21.42;13.02;;;8.90;99.90;;;;;;5056420;28;20200;-85
2024/02/29 10:21:10;;;;;;;20.00;12.35;;;8.90;99.90;;;;;;5056528;28;20177;-84
2024/02/29 10:23:37;;;;;;;20.30;13.40;;;9.00;99.90;;;;;;5053265;28;20296;-84
2024/02/29 10:26:03;;;;;;;21.92;12.82;;;9.10;99.90;;;;;;5042481;28;20208;-84
2024/02/29 10:28:30;;;;;;;20.33;12.85;;;9.20;99.90;;;;;;5047870;28;20275;-84
2024/02/29 10:30:58;;;;;;;18.02;12.40;;;9.20;99.90;;;;;;5056279;28;20173;-84
2024/02/29 10:33:27;;;;;;;17.83;12.93;;;9.40;99.90;;;;;;5055461;28;20185;-84
2024/02/29 10:35:54;;;;;;;18.55;12.45;;;9.40;99.90;;;;;;5072032;28;20187;-83
2024/02/29 10:38:24;;;;;;;18.73;12.45;;;9.40;99.90;;;;;;5065150;28;20267;-85
2024/02/29 10:40:52;;;;;;;21.02;12.18;;;9.50;99.90;;;;;;5051864;28;20185;-84
2024/02/29 10:43:20;;;;;;;19.73;12.48;;;9.50;99.90;;;;;;5039823;28;20549;-83
2024/02/29 10:45:50;;;;;;;18.08;11.60;;;9.50;99.90;;;;;;5048017;28;20182;-84
2024/02/29 10:48:30;;;;;;;19.23;11.63;;;9.50;99.90;;;;;;5047507;28;20208;-85
2024/02/29 10:51:08;;;;;;;16.48;11.00;;;9.60;99.90;;;;;;5042938;28;20177;-84
2024/02/29 10:53:50;;;;;;;16.23;10.98;;;9.70;99.90;;;;;;5044375;28;20186;-85
2024/02/29 10:56:22;;;;;;;16.02;10.88;;;9.70;99.90;;;;;;5044826;28;20176;-84
2024/02/29 10:59:07;;;;;;;14.50;9.80;;;9.80;99.90;;;;;;5044539;28;20276;-84
2024/02/29 11:01:36;;;;;;;17.52;11.63;;;9.80;99.90;;;;;;5051062;28;20166;-82
2024/02/29 11:04:03;;;;;;;16.80;10.82;;;9.90;99.90;;;;;;5044068;28;20208;-84
2024/02/29 11:06:46;;;;;;;13.70;9.48;;;9.90;99.90;;;;;;5034573;28;20208;-83
2024/02/29 11:09:21;;;;;;;14.80;10.27;;;10.00;99.90;;;;;;5046274;28;20612;-84
2024/02/29 11:11:48;;;;;;;13.38;9.52;;;10.10;99.90;;;;;;5055653;28;20199;-84
2024/02/29 11:14:17;;;;;;;14.93;9.05;;;10.20;99.90;;;;;;5050554;28;20235;-84
2024/02/29 11:16:45;;;;;;;14.13;8.95;;;10.20;99.90;;;;;;5054900;28;20189;-84
2024/02/29 11:19:17;;;;;;;13.23;8.82;;;10.30;99.90;;;;;;5055373;28;20192;-84
2024/02/29 11:21:46;;;;;;;17.38;9.77;;;10.40;99.90;;;;;;5050336;28;20239;-84
2024/02/29 11:24:22;;;;;;;13.07;9.02;;;10.50;99.90;;;;;;5051602;28;20212;-83
2024/02/29 11:26:55;;;;;;;13.20;10.00;;;10.50;99.90;;;;;;5059171;28;20276;-85
2024/02/29 11:29:22;;;;;;;14.13;9.30;;;10.60;99.90;;;;;;5059465;28;20247;-85
2024/02/29 11:31:57;;;;;;;15.27;9.70;;;10.60;99.90;;;;;;5058832;28;20185;-85
2024/02/29 11:34:22;;;;;;;13.32;9.43;;;10.80;99.90;;;;;;5059644;28;20215;-85
2024/02/29 11:36:50;;;;;;;14.00;9.50;;;10.90;99.90;;;;;;5077292;28;20208;-86
2024/02/29 11:39:23;;;;;;;15.52;9.10;;;11.10;99.90;;;;;;5059794;28;20235;-85
2024/02/29 11:41:49;;;;;;;14.18;9.40;;;11.10;99.90;;;;;;5059574;28;20188;-85
2024/02/29 11:44:15;;;;;;;13.02;9.02;;;11.20;99.90;;;;;;5054372;28;20708;-86
2024/02/29 11:46:48;;;;;;;13.23;9.05;;;11.30;99.90;;;;;;5059017;28;20268;-85
2024/02/29 11:49:20;;;;;;;11.35;8.65;;;11.30;99.90;;;;;;5059267;28;20576;-85
2024/02/29 11:51:47;;;;;;;14.27;9.35;;;11.30;99.90;;;;;;5043623;28;20186;-87
2024/02/29 11:54:14;;;;;;;14.10;9.07;;;11.40;99.90;;;;;;5059426;28;20188;-88
2024/02/29 11:56:41;;;;;;;12.18;8.75;;;11.30;99.90;;;;;;5076985;28;20525;-86
2024/02/29 11:59:10;;;;;;;13.68;9.18;;;11.30;99.90;;;;;;5076996;28;20581;-86
2024/02/29 12:01:36;;;;;;;13.35;9.48;;;11.40;99.90;;;;;;5058840;28;20234;-86
2024/02/29 12:04:04;;;;;;;13.10;8.60;;;11.40;99.90;;;;;;5058797;28;20662;-85
2024/02/29 12:06:30;;;;;;;12.93;8.18;;;11.50;99.90;;;;;;5058391;28;20181;-84
2024/02/29 12:08:56;;;;;;;13.85;8.38;;;11.50;99.90;;;;;;5051319;28;20185;-86
2024/02/29 12:11:23;;;;;;;13.48;8.30;;;11.60;99.90;;;;;;5056049;28;20327;-84
2024/02/29 12:13:49;;;;;;;12.73;8.60;;;11.60;99.90;;;;;;5054071;28;20748;-84
2024/02/29 12:16:15;;;;;;;12.25;8.48;;;11.60;99.90;;;;;;5058368;28;20574;-85
2024/02/29 12:18:41;;;;;;;10.85;7.93;;;11.80;99.90;;;;;;5050476;28;20204;-85
2024/02/29 12:21:07;;;;;;;11.27;7.57;;;11.90;99.90;;;;;;5057793;28;20268;-86
2024/02/29 12:23:33;;;;;;;11.43;8.13;;;11.90;99.90;;;;;;5076490;28;20383;-86
2024/02/29 12:26:10;;;;;;;11.15;8.07;;;11.90;99.90;;;;;;5058538;28;20275;-86
2024/02/29 12:28:38;;;;;;;12.50;7.80;;;11.90;99.90;;;;;;5050170;28;20242;-87
2024/02/29 12:31:06;;;;;;;10.52;7.47;;;12.00;99.90;;;;;;5051712;28;20181;-86
2024/02/29 12:33:35;;;;;;;10.30;7.50;;;12.10;99.90;;;;;;5057118;28;20189;-88
2024/02/29 12:36:01;;;;;;;10.73;7.15;;;12.10;99.90;;;;;;5056563;28;20181;-85
2024/02/29 12:38:27;;;;;;;10.55;7.60;;;12.20;99.90;;;;;;5058434;28;20488;-85